createdAt,value
2022-11-05T00:02:47.113Z,6.70
2022-11-05T00:06:47.618Z,6.65
2022-11-05T00:10:31.797Z,5.15
2022-11-05T00:14:33.291Z,5.43
2022-11-05T00:18:15.033Z,4.90
2022-11-05T00:22:15.568Z,4.55
2022-11-05T00:25:59.688Z,4.30
2022-11-05T00:29:41.377Z,4.72
2022-11-05T00:33:23.110Z,4.03
2022-11-05T00:37:04.800Z,4.10
2022-11-05T00:40:46.723Z,5.35
2022-11-05T00:44:47.197Z,3.83
2022-11-05T00:48:47.680Z,4.10
2022-11-05T00:52:48.059Z,3.40
2022-11-05T00:56:29.818Z,3.72
2022-11-05T01:00:12.290Z,4.05
2022-11-05T01:03:54.060Z,3.88
2022-11-05T01:07:35.760Z,4.03
2022-11-05T01:11:35.333Z,3.70
2022-11-05T01:15:18.898Z,4.35
2022-11-05T01:19:02.017Z,4.35
2022-11-05T01:22:43.754Z,4.70
2022-11-05T01:26:26.031Z,4.80
2022-11-05T01:30:08.645Z,4.93
2022-11-05T01:33:50.703Z,4.50
2022-11-05T01:37:33.359Z,5.22
2022-11-05T01:41:15.120Z,4.68
2022-11-05T01:45:22.661Z,4.32
2022-11-05T01:49:17.249Z,5.00
2022-11-05T01:53:36.850Z,4.43
2022-11-05T01:57:19.024Z,4.47
2022-11-05T02:01:01.069Z,4.47
2022-11-05T02:04:56.010Z,3.90
2022-11-05T02:08:56.581Z,4.22
2022-11-05T02:12:40.602Z,3.47
2022-11-05T02:16:58.288Z,3.22
2022-11-05T02:20:52.452Z,3.95
2022-11-05T02:24:55.281Z,4.72
2022-11-05T02:28:58.537Z,3.97
2022-11-05T02:33:14.129Z,3.50
2022-11-05T02:37:21.370Z,3.50
2022-11-05T02:41:41.826Z,3.20
2022-11-05T02:45:29.517Z,3.72
2022-11-05T02:49:21.925Z,3.60
2022-11-05T02:53:38.175Z,3.13
2022-11-05T02:57:22.585Z,3.00
2022-11-05T03:01:07.023Z,2.95
2022-11-05T03:04:49.166Z,2.75
2022-11-05T03:08:42.601Z,3.47
2022-11-05T03:12:47.333Z,2.95
2022-11-05T03:16:38.252Z,2.80
2022-11-05T03:20:46.558Z,2.60
2022-11-05T03:24:34.206Z,3.10
2022-11-05T03:28:18.611Z,2.90
2022-11-05T03:32:03.119Z,3.25
2022-11-05T03:35:54.617Z,3.05
2022-11-05T03:39:46.030Z,2.88
2022-11-05T03:43:32.856Z,2.72
2022-11-05T03:47:19.414Z,2.30
2022-11-05T03:51:10.241Z,2.50
2022-11-05T03:54:52.040Z,2.70
2022-11-05T03:58:35.145Z,2.33
2022-11-05T04:02:19.587Z,2.60
2022-11-05T04:06:20.693Z,2.88
2022-11-05T04:10:21.193Z,3.10
2022-11-05T04:14:02.920Z,2.83
2022-11-05T04:17:44.728Z,2.78
2022-11-05T04:21:44.864Z,2.67
2022-11-05T04:25:26.574Z,3.05
2022-11-05T04:29:26.855Z,2.30
2022-11-05T04:33:11.618Z,3.05
2022-11-05T04:36:53.649Z,2.20
2022-11-05T04:40:36.072Z,2.30
2022-11-05T04:44:17.834Z,2.75
2022-11-05T04:47:59.676Z,2.63
2022-11-05T04:51:41.392Z,2.42
2022-11-05T04:55:23.243Z,2.25
2022-11-05T04:59:04.931Z,2.45
2022-11-05T05:02:47.367Z,2.30
2022-11-05T05:06:29.073Z,2.20
2022-11-05T05:10:11.255Z,2.40
2022-11-05T05:13:52.982Z,2.50
2022-11-05T05:17:34.707Z,2.47
2022-11-05T05:21:37.058Z,2.28
2022-11-05T05:25:18.743Z,2.22
2022-11-05T05:29:00.518Z,2.05
2022-11-05T05:32:42.306Z,2.65
2022-11-05T05:36:24.375Z,2.60
2022-11-05T05:40:06.875Z,2.70
2022-11-05T05:43:48.665Z,2.33
2022-11-05T05:47:30.390Z,2.80
2022-11-05T05:51:12.638Z,2.60
2022-11-05T05:54:54.329Z,2.83
2022-11-05T05:58:39.700Z,2.45
2022-11-05T06:02:22.872Z,2.50
2022-11-05T06:06:10.774Z,2.10
2022-11-05T06:09:52.466Z,2.55
2022-11-05T06:13:34.754Z,2.08
2022-11-05T06:17:16.565Z,3.33
2022-11-05T06:21:10.535Z,2.58
2022-11-05T06:24:52.248Z,3.03
2022-11-05T06:28:34.514Z,3.65
2022-11-05T06:32:16.237Z,3.75
2022-11-05T06:36:02.286Z,3.53
2022-11-05T06:39:44.168Z,2.40
2022-11-05T06:43:26.567Z,2.40
2022-11-05T06:47:08.264Z,2.20
2022-11-05T06:50:49.960Z,1.90
2022-11-05T06:54:31.652Z,2.35
2022-11-05T06:58:13.689Z,3.38
2022-11-05T07:01:55.560Z,2.63
2022-11-05T07:05:40.347Z,2.67
2022-11-05T07:09:22.616Z,2.35
2022-11-05T07:13:08.088Z,2.80
2022-11-05T07:16:50.812Z,2.92
2022-11-05T07:20:34.400Z,2.60
2022-11-05T07:24:16.377Z,2.65
2022-11-05T07:27:58.448Z,2.20
2022-11-05T07:31:40.165Z,2.50
2022-11-05T07:35:22.179Z,2.85
2022-11-05T07:39:03.884Z,2.70
2022-11-05T07:42:51.540Z,2.65
2022-11-05T07:46:33.249Z,2.30
2022-11-05T07:50:17.348Z,2.50
2022-11-05T07:53:59.062Z,2.17
2022-11-05T07:57:48.811Z,2.53
2022-11-05T08:01:30.666Z,1.88
2022-11-05T08:05:12.548Z,1.65
2022-11-05T08:08:54.216Z,1.73
2022-11-05T08:12:35.925Z,1.80
2022-11-05T08:16:17.800Z,1.80
2022-11-05T08:19:59.494Z,1.80
2022-11-05T08:23:42.634Z,1.50
2022-11-05T08:27:24.320Z,1.83
2022-11-05T08:31:06.080Z,1.75
2022-11-05T08:34:47.782Z,1.60
2022-11-05T08:38:29.851Z,2.03
2022-11-05T08:42:11.625Z,1.98
2022-11-05T08:45:54.943Z,2.13
2022-11-05T08:49:36.637Z,1.92
2022-11-05T08:53:18.982Z,2.13
2022-11-05T08:57:00.666Z,2.00
2022-11-05T09:00:43.259Z,2.40
2022-11-05T09:04:25.012Z,2.15
2022-11-05T09:08:08.436Z,2.30
2022-11-05T09:12:11.207Z,1.85
2022-11-05T09:15:52.063Z,2.10
2022-11-05T09:19:36.701Z,2.15
2022-11-05T09:23:21.509Z,2.25
2022-11-05T09:27:03.283Z,2.00
2022-11-05T09:30:47.321Z,2.03
2022-11-05T09:34:29.078Z,2.30
2022-11-05T09:38:10.988Z,2.60
2022-11-05T09:41:57.421Z,2.65
2022-11-05T09:45:39.151Z,2.00
2022-11-05T09:49:40.049Z,2.15
2022-11-05T09:53:23.228Z,2.00
2022-11-05T09:57:07.904Z,2.60
2022-11-05T10:00:52.427Z,1.80
2022-11-05T10:04:34.636Z,2.17
2022-11-05T10:08:33.873Z,2.58
2022-11-05T10:12:24.394Z,2.33
2022-11-05T10:16:35.151Z,2.28
2022-11-05T10:20:36.802Z,2.10
2022-11-05T10:24:20.947Z,2.05
2022-11-05T10:28:04.737Z,2.38
2022-11-05T10:31:46.728Z,1.80
2022-11-05T10:35:31.299Z,1.83
2022-11-05T10:39:15.917Z,1.55
2022-11-05T10:43:20.382Z,1.90
2022-11-05T10:47:34.172Z,2.15
2022-11-05T10:51:16.618Z,2.00
2022-11-05T10:55:02.687Z,1.92
2022-11-05T10:58:56.249Z,1.65
2022-11-05T11:02:38.128Z,1.90
2022-11-05T11:06:31.856Z,2.40
2022-11-05T11:10:22.069Z,2.20
2022-11-05T11:14:11.597Z,2.00
2022-11-05T11:17:54.839Z,1.88
2022-11-05T11:21:37.966Z,2.17
2022-11-05T11:25:31.825Z,2.63
2022-11-05T11:29:13.484Z,2.00
2022-11-05T11:33:04.545Z,2.00
2022-11-05T11:36:49.105Z,1.95
2022-11-05T11:40:37.887Z,2.63
2022-11-05T11:44:27.029Z,2.20
2022-11-05T11:48:19.818Z,2.20
2022-11-05T11:52:05.856Z,6.15
2022-11-05T11:56:01.508Z,2.28
2022-11-05T12:00:09.405Z,2.13
2022-11-05T12:03:55.037Z,2.00
2022-11-05T12:07:58.019Z,2.17
2022-11-05T12:11:46.605Z,3.75
2022-11-05T12:15:47.597Z,5.53
2022-11-05T12:20:20.402Z,2.30
2022-11-05T12:24:27.218Z,2.58
2022-11-05T12:28:23.017Z,2.10
2022-11-05T12:32:49.113Z,1.90
2022-11-05T12:37:07.612Z,2.28
2022-11-05T12:41:16.111Z,2.00
2022-11-05T12:45:07.956Z,1.90
2022-11-05T12:49:03.117Z,1.60
2022-11-05T12:53:09.815Z,2.13
2022-11-05T12:57:00.476Z,3.30
2022-11-05T13:00:49.418Z,2.55
2022-11-05T13:04:46.336Z,2.33
2022-11-05T13:08:59.998Z,2.08
2022-11-05T13:12:43.612Z,2.00
2022-11-05T13:16:36.324Z,2.33
2022-11-05T13:20:25.179Z,1.88
2022-11-05T13:24:20.965Z,1.90
2022-11-05T13:28:06.651Z,2.47
2022-11-05T13:31:54.973Z,1.92
2022-11-05T13:35:44.672Z,2.03
2022-11-05T13:39:31.068Z,2.28
2022-11-05T13:43:21.887Z,2.10
2022-11-05T13:47:37.836Z,1.73
2022-11-05T13:51:48.656Z,2.00
2022-11-05T13:55:41.991Z,2.63
2022-11-05T14:00:04.251Z,2.55
2022-11-05T14:03:49.862Z,1.98
2022-11-05T14:07:36.355Z,1.65
2022-11-05T14:11:29.215Z,2.22
2022-11-05T14:15:29.584Z,2.17
2022-11-05T14:19:20.400Z,2.20
2022-11-05T14:23:23.710Z,2.28
2022-11-05T14:27:05.376Z,1.90
2022-11-05T14:30:47.643Z,2.17
2022-11-05T14:35:07.821Z,1.92
2022-11-05T14:38:52.173Z,1.85
2022-11-05T14:42:33.969Z,1.70
2022-11-05T14:46:16.650Z,2.05
2022-11-05T14:50:18.042Z,2.00
2022-11-05T14:54:24.471Z,1.70
2022-11-05T14:58:25.582Z,1.40
2022-11-05T15:02:17.164Z,1.40
2022-11-05T15:06:08.097Z,1.40
2022-11-05T15:09:54.892Z,1.50
2022-11-05T15:13:46.773Z,1.30
2022-11-05T15:17:33.048Z,1.25
2022-11-05T15:21:18.058Z,1.35
2022-11-05T15:25:00.110Z,1.08
2022-11-05T15:28:48.219Z,1.42
2022-11-05T15:36:31.803Z,1.90
2022-11-05T15:40:27.607Z,1.83
2022-11-05T15:44:28.119Z,1.88
2022-11-05T15:48:19.279Z,1.40
2022-11-05T15:52:01.070Z,2.03
2022-11-05T15:55:54.566Z,1.42
2022-11-05T15:59:37.108Z,1.33
2022-11-05T16:03:25.551Z,1.70
2022-11-05T16:07:10.821Z,2.90
2022-11-05T16:11:00.764Z,2.63
2022-11-05T16:14:42.771Z,1.60
2022-11-05T16:18:29.956Z,1.75
2022-11-05T16:22:12.184Z,2.60
2022-11-05T16:25:53.900Z,2.85
2022-11-05T16:29:38.246Z,2.10
2022-11-05T16:33:20.144Z,3.80
2022-11-05T16:37:02.976Z,2.20
2022-11-05T16:40:45.006Z,2.13
2022-11-05T16:44:26.848Z,2.47
2022-11-05T16:48:13.580Z,2.90
2022-11-05T16:51:55.465Z,2.45
2022-11-05T16:55:38.940Z,2.90
2022-11-05T16:59:20.621Z,2.45
2022-11-05T17:03:04.088Z,2.10
2022-11-05T17:06:48.024Z,2.10
2022-11-05T17:10:30.714Z,2.60
2022-11-05T17:14:13.966Z,5.47
2022-11-05T17:17:56.018Z,4.85
2022-11-05T17:21:37.717Z,2.55
2022-11-05T17:25:19.564Z,8.80
2022-11-05T17:29:01.619Z,6.18
2022-11-05T17:32:43.413Z,6.18
2022-11-05T17:36:25.669Z,5.00
2022-11-05T17:40:10.296Z,4.45
2022-11-05T17:43:56.461Z,5.80
2022-11-05T17:47:38.240Z,6.22
2022-11-05T17:51:20.320Z,8.50
2022-11-05T17:55:03.487Z,3.20
2022-11-05T17:58:45.320Z,7.82
2022-11-05T18:02:29.454Z,10.10
2022-11-05T18:06:11.301Z,7.03
2022-11-05T18:09:53.003Z,4.25
2022-11-05T18:13:34.692Z,7.85
2022-11-05T18:17:16.435Z,10.45
2022-11-05T18:21:00.117Z,9.98
2022-11-05T18:24:41.918Z,6.45
2022-11-05T18:28:23.599Z,20.73
2022-11-05T18:32:06.345Z,16.67
2022-11-05T18:35:48.103Z,20.42
2022-11-05T18:39:30.044Z,13.18
2022-11-05T18:43:12.366Z,5.57
2022-11-05T18:46:58.686Z,4.78
2022-11-05T18:50:40.726Z,3.60
2022-11-05T18:54:22.613Z,3.78
2022-11-05T18:58:04.302Z,3.33
2022-11-05T19:01:46.732Z,2.78
2022-11-05T19:05:30.354Z,3.90
2022-11-05T19:09:12.253Z,3.83
2022-11-05T19:12:54.156Z,3.50
2022-11-05T19:16:36.998Z,4.32
2022-11-05T19:20:18.716Z,5.35
2022-11-05T19:24:02.050Z,6.47
2022-11-05T19:27:44.031Z,8.02
2022-11-05T19:31:26.290Z,9.15
2022-11-05T19:35:08.772Z,10.38
2022-11-05T19:38:56.310Z,11.70
2022-11-05T19:42:38.029Z,7.60
2022-11-05T19:46:20.790Z,6.35
2022-11-05T19:50:02.543Z,9.52
2022-11-05T19:53:44.486Z,9.20
2022-11-05T19:57:26.170Z,8.20
2022-11-05T20:01:08.384Z,7.45
2022-11-05T20:04:50.713Z,7.35
2022-11-05T20:08:33.032Z,7.85
2022-11-05T20:12:14.717Z,7.07
2022-11-05T20:15:57.162Z,17.80
2022-11-05T20:19:39.217Z,7.75
2022-11-05T20:23:20.933Z,9.23
2022-11-05T20:27:02.753Z,10.48
2022-11-05T20:30:44.514Z,12.60
2022-11-05T20:34:28.279Z,9.57
2022-11-05T20:38:10.501Z,8.50
2022-11-05T20:41:53.358Z,7.93
2022-11-05T20:45:35.083Z,8.82
2022-11-05T20:49:21.286Z,9.10
2022-11-05T20:53:06.332Z,8.05
2022-11-05T20:56:48.024Z,11.15
2022-11-05T21:00:29.787Z,22.10
2022-11-05T21:04:11.520Z,10.88
2022-11-05T21:07:53.221Z,9.13
2022-11-05T21:11:55.187Z,8.68
2022-11-05T21:15:36.932Z,9.02
2022-11-05T21:19:18.705Z,7.85
2022-11-05T21:23:00.396Z,8.65
2022-11-05T21:26:42.154Z,8.77
2022-11-05T21:30:23.941Z,8.60
2022-11-05T21:34:05.707Z,9.40
2022-11-05T21:37:47.419Z,9.82
2022-11-05T21:41:29.146Z,9.68
2022-11-05T21:45:11.152Z,10.38
2022-11-05T21:48:53.013Z,10.70
2022-11-05T21:52:53.303Z,10.57
2022-11-05T21:56:53.891Z,12.10
2022-11-05T22:00:35.572Z,10.82
2022-11-05T22:04:17.315Z,14.57
2022-11-05T22:07:59.085Z,13.82
2022-11-05T22:11:40.792Z,14.30
2022-11-05T22:15:22.572Z,16.10
2022-11-05T22:19:04.366Z,14.48
2022-11-05T22:22:46.119Z,13.68
2022-11-05T22:26:27.964Z,15.10
2022-11-05T22:30:10.128Z,13.82
2022-11-05T22:33:53.121Z,13.90
2022-11-05T22:37:34.806Z,12.95
2022-11-05T22:41:19.560Z,13.93
2022-11-05T22:45:01.272Z,14.63
2022-11-05T22:48:43.912Z,15.32
2022-11-05T22:52:25.744Z,16.90
2022-11-05T22:56:13.841Z,16.80
2022-11-05T23:03:37.840Z,18.00
2022-11-05T23:07:38.013Z,22.52
2022-11-05T23:11:38.694Z,14.57
2022-11-05T23:15:39.077Z,14.30
2022-11-05T23:19:39.819Z,14.88
2022-11-05T23:23:40.194Z,14.07
2022-11-05T23:27:22.073Z,13.90
2022-11-05T23:31:22.528Z,15.20
2022-11-05T23:35:05.309Z,13.05
2022-11-05T23:38:47.020Z,12.27
2022-11-05T23:42:47.560Z,12.80
2022-11-05T23:46:48.119Z,13.18
2022-11-05T23:50:34.316Z,12.75
2022-11-05T23:54:20.269Z,12.85
2022-11-05T23:58:02.313Z,13.25
